sensor_id;sensor_type;location;lat;lon;timestamp;pressure;altitude;pressure_sealevel;temperature
56286;BMP180;42191;47.562;9.686;2023-10-09T00:01:07;97624.00;;;20.10
56286;BMP180;42191;47.562;9.686;2023-10-09T00:03:41;97621.00;;;20.10
56286;BMP180;42191;47.562;9.686;2023-10-09T00:06:10;97619.00;;;20.10
56286;BMP180;42191;47.562;9.686;2023-10-09T00:08:40;97623.00;;;20.00
56286;BMP180;42191;47.562;9.686;2023-10-09T00:11:11;97619.00;;;20.00
56286;BMP180;42191;47.562;9.686;2023-10-09T00:13:47;97616.00;;;20.00
56286;BMP180;42191;47.562;9.686;2023-10-09T00:16:21;97616.00;;;20.00
56286;BMP180;42191;47.562;9.686;2023-10-09T00:19:04;97614.00;;;19.90
56286;BMP180;42191;47.562;9.686;2023-10-09T00:21:46;97622.00;;;19.90
56286;BMP180;42191;47.562;9.686;2023-10-09T00:24:13;97615.00;;;19.90
56286;BMP180;42191;47.562;9.686;2023-10-09T00:26:45;97615.00;;;19.90
56286;BMP180;42191;47.562;9.686;2023-10-09T00:29:15;97610.00;;;19.90
56286;BMP180;42191;47.562;9.686;2023-10-09T00:31:51;97618.00;;;19.90
56286;BMP180;42191;47.562;9.686;2023-10-09T00:34:22;97624.00;;;19.90
56286;BMP180;42191;47.562;9.686;2023-10-09T00:36:51;97616.00;;;19.90
56286;BMP180;42191;47.562;9.686;2023-10-09T00:39:18;97608.00;;;19.90
56286;BMP180;42191;47.562;9.686;2023-10-09T00:42:07;97611.00;;;19.90
56286;BMP180;42191;47.562;9.686;2023-10-09T00:44:38;97598.00;;;19.80
56286;BMP180;42191;47.562;9.686;2023-10-09T00:47:12;97605.00;;;19.80
56286;BMP180;42191;47.562;9.686;2023-10-09T00:49:57;97600.00;;;19.80
56286;BMP180;42191;47.562;9.686;2023-10-09T00:52:33;97602.00;;;19.80
56286;BMP180;42191;47.562;9.686;2023-10-09T00:55:07;97592.00;;;19.80
56286;BMP180;42191;47.562;9.686;2023-10-09T00:57:46;97594.00;;;19.80
56286;BMP180;42191;47.562;9.686;2023-10-09T01:00:17;97589.00;;;19.80
56286;BMP180;42191;47.562;9.686;2023-10-09T01:03:07;97581.00;;;19.80
56286;BMP180;42191;47.562;9.686;2023-10-09T01:05:55;97583.00;;;19.90
56286;BMP180;42191;47.562;9.686;2023-10-09T01:08:28;97577.00;;;19.80
56286;BMP180;42191;47.562;9.686;2023-10-09T01:10:57;97578.00;;;19.90
56286;BMP180;42191;47.562;9.686;2023-10-09T01:13:38;97577.00;;;19.90
56286;BMP180;42191;47.562;9.686;2023-10-09T01:16:07;97576.00;;;19.90
56286;BMP180;42191;47.562;9.686;2023-10-09T01:18:53;97571.00;;;19.90
56286;BMP180;42191;47.562;9.686;2023-10-09T01:21:20;97571.00;;;19.90
56286;BMP180;42191;47.562;9.686;2023-10-09T01:23:51;97578.00;;;19.90
56286;BMP180;42191;47.562;9.686;2023-10-09T01:26:39;97572.00;;;19.90
56286;BMP180;42191;47.562;9.686;2023-10-09T01:29:06;97562.00;;;19.90
56286;BMP180;42191;47.562;9.686;2023-10-09T01:31:40;97571.00;;;19.90
56286;BMP180;42191;47.562;9.686;2023-10-09T01:34:12;97571.00;;;19.90
56286;BMP180;42191;47.562;9.686;2023-10-09T01:36:39;97568.00;;;19.90
56286;BMP180;42191;47.562;9.686;2023-10-09T01:39:05;97565.00;;;19.90
56286;BMP180;42191;47.562;9.686;2023-10-09T01:41:36;97571.00;;;19.80
56286;BMP180;42191;47.562;9.686;2023-10-09T01:44:12;97566.00;;;19.80
56286;BMP180;42191;47.562;9.686;2023-10-09T01:46:38;97554.00;;;19.80
56286;BMP180;42191;47.562;9.686;2023-10-09T01:49:04;97558.00;;;19.70
56286;BMP180;42191;47.562;9.686;2023-10-09T01:51:42;97557.00;;;19.70
56286;BMP180;42191;47.562;9.686;2023-10-09T01:54:08;97557.00;;;19.70
56286;BMP180;42191;47.562;9.686;2023-10-09T01:56:35;97547.00;;;19.60
56286;BMP180;42191;47.562;9.686;2023-10-09T01:59:05;97556.00;;;19.60
56286;BMP180;42191;47.562;9.686;2023-10-09T02:01:35;97556.00;;;19.60
56286;BMP180;42191;47.562;9.686;2023-10-09T02:04:07;97547.00;;;19.50
56286;BMP180;42191;47.562;9.686;2023-10-09T02:06:39;97558.00;;;19.50
56286;BMP180;42191;47.562;9.686;2023-10-09T02:09:06;97550.00;;;19.50
56286;BMP180;42191;47.562;9.686;2023-10-09T02:11:33;97550.00;;;19.40
56286;BMP180;42191;47.562;9.686;2023-10-09T02:14:05;97557.00;;;19.40
56286;BMP180;42191;47.562;9.686;2023-10-09T02:16:45;97556.00;;;19.40
56286;BMP180;42191;47.562;9.686;2023-10-09T02:19:31;97561.00;;;19.30
56286;BMP180;42191;47.562;9.686;2023-10-09T02:22:01;97556.00;;;19.30
56286;BMP180;42191;47.562;9.686;2023-10-09T02:24:41;97556.00;;;19.20
56286;BMP180;42191;47.562;9.686;2023-10-09T02:27:16;97554.00;;;19.20
56286;BMP180;42191;47.562;9.686;2023-10-09T02:30:02;97553.00;;;19.20
56286;BMP180;42191;47.562;9.686;2023-10-09T02:32:35;97555.00;;;19.10
56286;BMP180;42191;47.562;9.686;2023-10-09T02:35:02;97553.00;;;19.10
56286;BMP180;42191;47.562;9.686;2023-10-09T02:37:36;97556.00;;;19.10
56286;BMP180;42191;47.562;9.686;2023-10-09T02:40:04;97547.00;;;19.10
56286;BMP180;42191;47.562;9.686;2023-10-09T02:42:34;97558.00;;;19.00
56286;BMP180;42191;47.562;9.686;2023-10-09T02:45:00;97545.00;;;19.00
56286;BMP180;42191;47.562;9.686;2023-10-09T02:47:29;97551.00;;;19.00
56286;BMP180;42191;47.562;9.686;2023-10-09T02:49:57;97542.00;;;18.90
56286;BMP180;42191;47.562;9.686;2023-10-09T02:52:33;97547.00;;;18.90
56286;BMP180;42191;47.562;9.686;2023-10-09T02:55:06;97544.00;;;18.90
56286;BMP180;42191;47.562;9.686;2023-10-09T02:57:40;97544.00;;;18.80
56286;BMP180;42191;47.562;9.686;2023-10-09T03:00:08;97541.00;;;18.80
56286;BMP180;42191;47.562;9.686;2023-10-09T03:02:35;97543.00;;;18.80
56286;BMP180;42191;47.562;9.686;2023-10-09T03:05:06;97536.00;;;18.80
56286;BMP180;42191;47.562;9.686;2023-10-09T03:07:38;97533.00;;;18.80
56286;BMP180;42191;47.562;9.686;2023-10-09T03:10:06;97546.00;;;18.70
56286;BMP180;42191;47.562;9.686;2023-10-09T03:12:35;97537.00;;;18.70
56286;BMP180;42191;47.562;9.686;2023-10-09T03:15:03;97541.00;;;18.70
56286;BMP180;42191;47.562;9.686;2023-10-09T03:17:31;97541.00;;;18.70
56286;BMP180;42191;47.562;9.686;2023-10-09T03:20:05;97531.00;;;18.70
56286;BMP180;42191;47.562;9.686;2023-10-09T03:22:41;97531.00;;;18.70
56286;BMP180;42191;47.562;9.686;2023-10-09T03:25:09;97533.00;;;18.70
56286;BMP180;42191;47.562;9.686;2023-10-09T03:27:40;97526.00;;;18.70
56286;BMP180;42191;47.562;9.686;2023-10-09T03:30:16;97533.00;;;18.60
56286;BMP180;42191;47.562;9.686;2023-10-09T03:32:48;97526.00;;;18.60
56286;BMP180;42191;47.562;9.686;2023-10-09T03:35:23;97521.00;;;18.60
56286;BMP180;42191;47.562;9.686;2023-10-09T03:38:00;97532.00;;;18.50
56286;BMP180;42191;47.562;9.686;2023-10-09T03:40:35;97519.00;;;18.60
56286;BMP180;42191;47.562;9.686;2023-10-09T03:43:04;97515.00;;;18.50
56286;BMP180;42191;47.562;9.686;2023-10-09T03:45:31;97523.00;;;18.60
56286;BMP180;42191;47.562;9.686;2023-10-09T03:48:01;97520.00;;;18.60
56286;BMP180;42191;47.562;9.686;2023-10-09T03:50:28;97520.00;;;18.60
56286;BMP180;42191;47.562;9.686;2023-10-09T03:53:06;97517.00;;;18.60
56286;BMP180;42191;47.562;9.686;2023-10-09T03:55:35;97517.00;;;18.60
56286;BMP180;42191;47.562;9.686;2023-10-09T03:58:01;97518.00;;;18.60
56286;BMP180;42191;47.562;9.686;2023-10-09T04:00:29;97514.00;;;18.60
56286;BMP180;42191;47.562;9.686;2023-10-09T04:02:56;97523.00;;;18.60
56286;BMP180;42191;47.562;9.686;2023-10-09T04:05:24;97519.00;;;18.50
56286;BMP180;42191;47.562;9.686;2023-10-09T04:07:50;97515.00;;;18.50
56286;BMP180;42191;47.562;9.686;2023-10-09T04:10:19;97518.00;;;18.50
56286;BMP180;42191;47.562;9.686;2023-10-09T04:13:04;97513.00;;;18.50
56286;BMP180;42191;47.562;9.686;2023-10-09T04:15:35;97518.00;;;18.40
56286;BMP180;42191;47.562;9.686;2023-10-09T04:18:02;97511.00;;;18.40
56286;BMP180;42191;47.562;9.686;2023-10-09T04:20:29;97503.00;;;18.40
56286;BMP180;42191;47.562;9.686;2023-10-09T04:22:55;97505.00;;;18.30
56286;BMP180;42191;47.562;9.686;2023-10-09T04:25:33;97509.00;;;18.30
56286;BMP180;42191;47.562;9.686;2023-10-09T04:28:09;97497.00;;;18.20
56286;BMP180;42191;47.562;9.686;2023-10-09T04:30:45;97500.00;;;18.20
56286;BMP180;42191;47.562;9.686;2023-10-09T04:33:21;97504.00;;;18.20
56286;BMP180;42191;47.562;9.686;2023-10-09T04:36:03;97500.00;;;18.20
56286;BMP180;42191;47.562;9.686;2023-10-09T04:38:48;97500.00;;;18.20
56286;BMP180;42191;47.562;9.686;2023-10-09T04:41:30;97497.00;;;18.10
56286;BMP180;42191;47.562;9.686;2023-10-09T04:44:09;97501.00;;;18.10
56286;BMP180;42191;47.562;9.686;2023-10-09T04:46:49;97500.00;;;18.10
56286;BMP180;42191;47.562;9.686;2023-10-09T04:49:34;97495.00;;;18.10
56286;BMP180;42191;47.562;9.686;2023-10-09T04:52:20;97495.00;;;18.10
56286;BMP180;42191;47.562;9.686;2023-10-09T04:54:58;97495.00;;;18.10
56286;BMP180;42191;47.562;9.686;2023-10-09T04:57:38;97490.00;;;18.10
56286;BMP180;42191;47.562;9.686;2023-10-09T05:00:16;97489.00;;;18.10
56286;BMP180;42191;47.562;9.686;2023-10-09T05:02:52;97495.00;;;18.10
56286;BMP180;42191;47.562;9.686;2023-10-09T05:05:23;97495.00;;;18.10
56286;BMP180;42191;47.562;9.686;2023-10-09T05:08:12;97498.00;;;18.20
56286;BMP180;42191;47.562;9.686;2023-10-09T05:10:48;97496.00;;;18.20
56286;BMP180;42191;47.562;9.686;2023-10-09T05:18:56;97515.00;;;18.20
56286;BMP180;42191;47.562;9.686;2023-10-09T05:21:23;97514.00;;;18.20
56286;BMP180;42191;47.562;9.686;2023-10-09T05:24:02;97503.00;;;18.20
56286;BMP180;42191;47.562;9.686;2023-10-09T05:26:39;97503.00;;;18.20
56286;BMP180;42191;47.562;9.686;2023-10-09T05:29:22;97498.00;;;18.20
56286;BMP180;42191;47.562;9.686;2023-10-09T05:31:54;97500.00;;;18.20
56286;BMP180;42191;47.562;9.686;2023-10-09T05:34:30;97499.00;;;18.20
56286;BMP180;42191;47.562;9.686;2023-10-09T05:37:06;97500.00;;;18.20
56286;BMP180;42191;47.562;9.686;2023-10-09T05:39:44;97503.00;;;18.20
56286;BMP180;42191;47.562;9.686;2023-10-09T05:42:34;97504.00;;;18.10
56286;BMP180;42191;47.562;9.686;2023-10-09T05:45:04;97509.00;;;18.10
56286;BMP180;42191;47.562;9.686;2023-10-09T05:47:50;97510.00;;;18.10
56286;BMP180;42191;47.562;9.686;2023-10-09T05:50:26;97504.00;;;18.10
56286;BMP180;42191;47.562;9.686;2023-10-09T05:52:54;97511.00;;;18.00
56286;BMP180;42191;47.562;9.686;2023-10-09T05:55:22;97502.00;;;18.10
56286;BMP180;42191;47.562;9.686;2023-10-09T05:57:59;97504.00;;;18.00
56286;BMP180;42191;47.562;9.686;2023-10-09T06:00:35;97509.00;;;18.10
56286;BMP180;42191;47.562;9.686;2023-10-09T06:03:20;97525.00;;;18.00
56286;BMP180;42191;47.562;9.686;2023-10-09T06:05:47;97517.00;;;18.10
56286;BMP180;42191;47.562;9.686;2023-10-09T06:08:20;97520.00;;;18.10
56286;BMP180;42191;47.562;9.686;2023-10-09T06:11:05;97529.00;;;18.10
56286;BMP180;42191;47.562;9.686;2023-10-09T06:13:52;97532.00;;;18.10
56286;BMP180;42191;47.562;9.686;2023-10-09T06:16:29;97529.00;;;18.10
56286;BMP180;42191;47.562;9.686;2023-10-09T06:19:08;97533.00;;;18.10
56286;BMP180;42191;47.562;9.686;2023-10-09T06:21:41;97537.00;;;18.10
56286;BMP180;42191;47.562;9.686;2023-10-09T06:24:26;97540.00;;;18.20
56286;BMP180;42191;47.562;9.686;2023-10-09T06:27:13;97538.00;;;18.20
56286;BMP180;42191;47.562;9.686;2023-10-09T06:29:41;97544.00;;;18.20
56286;BMP180;42191;47.562;9.686;2023-10-09T06:32:11;97551.00;;;18.30
56286;BMP180;42191;47.562;9.686;2023-10-09T06:35:01;97547.00;;;18.30
56286;BMP180;42191;47.562;9.686;2023-10-09T06:37:48;97542.00;;;18.40
56286;BMP180;42191;47.562;9.686;2023-10-09T06:40:33;97545.00;;;18.40
56286;BMP180;42191;47.562;9.686;2023-10-09T06:43:05;97553.00;;;18.40
56286;BMP180;42191;47.562;9.686;2023-10-09T06:45:35;97546.00;;;18.40
56286;BMP180;42191;47.562;9.686;2023-10-09T06:48:14;97542.00;;;18.50
56286;BMP180;42191;47.562;9.686;2023-10-09T06:51:07;97542.00;;;18.50
56286;BMP180;42191;47.562;9.686;2023-10-09T06:53:39;97552.00;;;18.60
56286;BMP180;42191;47.562;9.686;2023-10-09T06:56:28;97551.00;;;18.60
56286;BMP180;42191;47.562;9.686;2023-10-09T06:59:04;97554.00;;;18.70
56286;BMP180;42191;47.562;9.686;2023-10-09T07:01:41;97558.00;;;18.80
56286;BMP180;42191;47.562;9.686;2023-10-09T07:04:13;97560.00;;;18.90
56286;BMP180;42191;47.562;9.686;2023-10-09T07:06:48;97557.00;;;19.00
56286;BMP180;42191;47.562;9.686;2023-10-09T07:09:17;97563.00;;;19.10
56286;BMP180;42191;47.562;9.686;2023-10-09T07:11:50;97557.00;;;19.10
56286;BMP180;42191;47.562;9.686;2023-10-09T07:14:21;97572.00;;;19.20
56286;BMP180;42191;47.562;9.686;2023-10-09T07:17:04;97573.00;;;19.30
56286;BMP180;42191;47.562;9.686;2023-10-09T07:19:48;97576.00;;;19.40
56286;BMP180;42191;47.562;9.686;2023-10-09T07:22:15;97572.00;;;19.50
56286;BMP180;42191;47.562;9.686;2023-10-09T07:24:56;97580.00;;;19.60
56286;BMP180;42191;47.562;9.686;2023-10-09T07:27:27;97584.00;;;19.60
56286;BMP180;42191;47.562;9.686;2023-10-09T07:30:14;97588.00;;;19.70
56286;BMP180;42191;47.562;9.686;2023-10-09T07:32:57;97592.00;;;19.80
56286;BMP180;42191;47.562;9.686;2023-10-09T07:35:35;97594.00;;;19.90
56286;BMP180;42191;47.562;9.686;2023-10-09T07:38:24;97602.00;;;20.00
56286;BMP180;42191;47.562;9.686;2023-10-09T07:41:01;97610.00;;;20.10
56286;BMP180;42191;47.562;9.686;2023-10-09T07:43:32;97602.00;;;20.10
56286;BMP180;42191;47.562;9.686;2023-10-09T07:46:17;97619.00;;;20.20
56286;BMP180;42191;47.562;9.686;2023-10-09T07:49:03;97614.00;;;20.30
56286;BMP180;42191;47.562;9.686;2023-10-09T07:51:37;97623.00;;;20.40
56286;BMP180;42191;47.562;9.686;2023-10-09T07:54:04;97629.00;;;20.50
56286;BMP180;42191;47.562;9.686;2023-10-09T07:56:34;97627.00;;;20.60
56286;BMP180;42191;47.562;9.686;2023-10-09T07:59:07;97623.00;;;20.70
56286;BMP180;42191;47.562;9.686;2023-10-09T08:01:50;97630.00;;;20.80
56286;BMP180;42191;47.562;9.686;2023-10-09T08:04:21;97616.00;;;20.90
56286;BMP180;42191;47.562;9.686;2023-10-09T08:07:14;97620.00;;;21.00
56286;BMP180;42191;47.562;9.686;2023-10-09T08:09:54;97613.00;;;21.10
56286;BMP180;42191;47.562;9.686;2023-10-09T08:12:43;97613.00;;;21.20
56286;BMP180;42191;47.562;9.686;2023-10-09T08:15:16;97604.00;;;21.30
56286;BMP180;42191;47.562;9.686;2023-10-09T08:17:52;97613.00;;;21.40
56286;BMP180;42191;47.562;9.686;2023-10-09T08:20:37;97608.00;;;21.50
56286;BMP180;42191;47.562;9.686;2023-10-09T08:23:38;97617.00;;;21.60
56286;BMP180;42191;47.562;9.686;2023-10-09T08:26:15;97614.00;;;21.70
56286;BMP180;42191;47.562;9.686;2023-10-09T08:28:53;97618.00;;;21.80
56286;BMP180;42191;47.562;9.686;2023-10-09T08:31:20;97623.00;;;21.80
56286;BMP180;42191;47.562;9.686;2023-10-09T08:34:11;97618.00;;;21.80
56286;BMP180;42191;47.562;9.686;2023-10-09T08:36:50;97619.00;;;21.80
56286;BMP180;42191;47.562;9.686;2023-10-09T08:39:22;97621.00;;;21.80
56286;BMP180;42191;47.562;9.686;2023-10-09T08:41:55;97621.00;;;21.90
56286;BMP180;42191;47.562;9.686;2023-10-09T08:44:25;97620.00;;;21.90
56286;BMP180;42191;47.562;9.686;2023-10-09T08:46:55;97619.00;;;22.00
56286;BMP180;42191;47.562;9.686;2023-10-09T08:49:21;97620.00;;;22.10
56286;BMP180;42191;47.562;9.686;2023-10-09T08:51:47;97616.00;;;22.20
56286;BMP180;42191;47.562;9.686;2023-10-09T08:54:14;97620.00;;;22.30
56286;BMP180;42191;47.562;9.686;2023-10-09T08:56:41;97623.00;;;22.40
56286;BMP180;42191;47.562;9.686;2023-10-09T08:59:18;97628.00;;;22.40
56286;BMP180;42191;47.562;9.686;2023-10-09T09:01:45;97628.00;;;22.40
56286;BMP180;42191;47.562;9.686;2023-10-09T09:04:35;97632.00;;;22.40
56286;BMP180;42191;47.562;9.686;2023-10-09T09:07:04;97624.00;;;22.40
56286;BMP180;42191;47.562;9.686;2023-10-09T09:09:31;97627.00;;;22.50
56286;BMP180;42191;47.562;9.686;2023-10-09T09:11:58;97621.00;;;22.50
56286;BMP180;42191;47.562;9.686;2023-10-09T09:14:38;97614.00;;;22.60
56286;BMP180;42191;47.562;9.686;2023-10-09T09:17:06;97622.00;;;22.60
56286;BMP180;42191;47.562;9.686;2023-10-09T09:19:37;97612.00;;;22.70
56286;BMP180;42191;47.562;9.686;2023-10-09T09:22:04;97617.00;;;22.80
56286;BMP180;42191;47.562;9.686;2023-10-09T09:24:38;97609.00;;;22.80
56286;BMP180;42191;47.562;9.686;2023-10-09T09:27:06;97616.00;;;22.90
56286;BMP180;42191;47.562;9.686;2023-10-09T09:32:09;97611.00;;;23.20
56286;BMP180;42191;47.562;9.686;2023-10-09T09:34:53;97614.00;;;23.40
56286;BMP180;42191;47.562;9.686;2023-10-09T09:37:32;97619.00;;;23.50
56286;BMP180;42191;47.562;9.686;2023-10-09T09:40:18;97609.00;;;23.70
56286;BMP180;42191;47.562;9.686;2023-10-09T09:43:01;97609.00;;;23.90
56286;BMP180;42191;47.562;9.686;2023-10-09T09:45:38;97601.00;;;24.10
56286;BMP180;42191;47.562;9.686;2023-10-09T09:48:12;97611.00;;;24.30
56286;BMP180;42191;47.562;9.686;2023-10-09T09:50:42;97604.00;;;24.50
56286;BMP180;42191;47.562;9.686;2023-10-09T09:53:15;97595.00;;;24.70
56286;BMP180;42191;47.562;9.686;2023-10-09T09:55:51;97595.00;;;24.90
56286;BMP180;42191;47.562;9.686;2023-10-09T09:58:27;97591.00;;;25.10
56286;BMP180;42191;47.562;9.686;2023-10-09T10:01:09;97592.00;;;25.30
56286;BMP180;42191;47.562;9.686;2023-10-09T10:04:01;97587.00;;;25.50
56286;BMP180;42191;47.562;9.686;2023-10-09T10:06:31;97588.00;;;25.70
56286;BMP180;42191;47.562;9.686;2023-10-09T10:08:58;97589.00;;;25.90
56286;BMP180;42191;47.562;9.686;2023-10-09T10:11:46;97595.00;;;26.10
56286;BMP180;42191;47.562;9.686;2023-10-09T10:14:18;97591.00;;;26.30
56286;BMP180;42191;47.562;9.686;2023-10-09T10:17:04;97596.00;;;26.50
56286;BMP180;42191;47.562;9.686;2023-10-09T10:22:30;97605.00;;;26.80
56286;BMP180;42191;47.562;9.686;2023-10-09T10:24:57;97613.00;;;26.90
56286;BMP180;42191;47.562;9.686;2023-10-09T10:27:25;97599.00;;;27.00
56286;BMP180;42191;47.562;9.686;2023-10-09T10:32:53;97594.00;;;27.30
56286;BMP180;42191;47.562;9.686;2023-10-09T10:35:20;97598.00;;;27.40
56286;BMP180;42191;47.562;9.686;2023-10-09T10:37:58;97596.00;;;27.50
56286;BMP180;42191;47.562;9.686;2023-10-09T10:40:34;97586.00;;;27.70
56286;BMP180;42191;47.562;9.686;2023-10-09T10:43:18;97592.00;;;27.80
56286;BMP180;42191;47.562;9.686;2023-10-09T10:46:14;97582.00;;;27.90
56286;BMP180;42191;47.562;9.686;2023-10-09T10:48:59;97578.00;;;28.00
56286;BMP180;42191;47.562;9.686;2023-10-09T10:51:26;97577.00;;;28.00
56286;BMP180;42191;47.562;9.686;2023-10-09T10:54:03;97578.00;;;28.10
56286;BMP180;42191;47.562;9.686;2023-10-09T10:56:48;97584.00;;;28.10
56286;BMP180;42191;47.562;9.686;2023-10-09T10:59:15;97584.00;;;28.10
56286;BMP180;42191;47.562;9.686;2023-10-09T11:01:49;97585.00;;;28.10
56286;BMP180;42191;47.562;9.686;2023-10-09T11:04:28;97584.00;;;28.10
56286;BMP180;42191;47.562;9.686;2023-10-09T11:07:10;97585.00;;;28.10
56286;BMP180;42191;47.562;9.686;2023-10-09T11:09:56;97576.00;;;28.20
56286;BMP180;42191;47.562;9.686;2023-10-09T11:12:27;97572.00;;;28.20
56286;BMP180;42191;47.562;9.686;2023-10-09T11:15:08;97578.00;;;28.20
56286;BMP180;42191;47.562;9.686;2023-10-09T11:20:24;97576.00;;;28.40
56286;BMP180;42191;47.562;9.686;2023-10-09T11:22:53;97570.00;;;28.40
56286;BMP180;42191;47.562;9.686;2023-10-09T11:25:38;97569.00;;;28.50
56286;BMP180;42191;47.562;9.686;2023-10-09T11:28:20;97565.00;;;28.60
56286;BMP180;42191;47.562;9.686;2023-10-09T11:31:11;97558.00;;;28.70
56286;BMP180;42191;47.562;9.686;2023-10-09T11:33:51;97567.00;;;28.70
56286;BMP180;42191;47.562;9.686;2023-10-09T11:36:24;97571.00;;;28.80
56286;BMP180;42191;47.562;9.686;2023-10-09T11:39:00;97569.00;;;28.80
56286;BMP180;42191;47.562;9.686;2023-10-09T11:41:40;97566.00;;;28.90
56286;BMP180;42191;47.562;9.686;2023-10-09T11:44:10;97565.00;;;29.00
56286;BMP180;42191;47.562;9.686;2023-10-09T11:47:00;97564.00;;;29.10
56286;BMP180;42191;47.562;9.686;2023-10-09T11:49:55;97553.00;;;29.20
56286;BMP180;42191;47.562;9.686;2023-10-09T11:52:28;97562.00;;;29.30
56286;BMP180;42191;47.562;9.686;2023-10-09T11:55:02;97551.00;;;29.50
56286;BMP180;42191;47.562;9.686;2023-10-09T11:57:29;97548.00;;;29.50
56286;BMP180;42191;47.562;9.686;2023-10-09T11:59:59;97544.00;;;29.70
56286;BMP180;42191;47.562;9.686;2023-10-09T12:02:26;97546.00;;;29.80
56286;BMP180;42191;47.562;9.686;2023-10-09T12:04:53;97553.00;;;29.90
56286;BMP180;42191;47.562;9.686;2023-10-09T12:07:24;97545.00;;;30.00
56286;BMP180;42191;47.562;9.686;2023-10-09T12:09:51;97544.00;;;30.10
56286;BMP180;42191;47.562;9.686;2023-10-09T12:12:22;97539.00;;;30.20
56286;BMP180;42191;47.562;9.686;2023-10-09T12:14:52;97541.00;;;30.20
56286;BMP180;42191;47.562;9.686;2023-10-09T12:17:19;97538.00;;;30.30
56286;BMP180;42191;47.562;9.686;2023-10-09T12:19:45;97541.00;;;30.30
56286;BMP180;42191;47.562;9.686;2023-10-09T12:22:13;97539.00;;;30.20
56286;BMP180;42191;47.562;9.686;2023-10-09T12:24:42;97549.00;;;30.10
56286;BMP180;42191;47.562;9.686;2023-10-09T12:27:11;97545.00;;;30.00
56286;BMP180;42191;47.562;9.686;2023-10-09T12:29:38;97549.00;;;29.90
56286;BMP180;42191;47.562;9.686;2023-10-09T12:32:10;97543.00;;;29.70
56286;BMP180;42191;47.562;9.686;2023-10-09T12:34:37;97541.00;;;29.70
56286;BMP180;42191;47.562;9.686;2023-10-09T12:37:04;97542.00;;;29.60
56286;BMP180;42191;47.562;9.686;2023-10-09T12:39:32;97544.00;;;29.60
56286;BMP180;42191;47.562;9.686;2023-10-09T12:42:06;97542.00;;;29.50
56286;BMP180;42191;47.562;9.686;2023-10-09T12:44:38;97540.00;;;29.40
56286;BMP180;42191;47.562;9.686;2023-10-09T12:47:07;97534.00;;;29.40
56286;BMP180;42191;47.562;9.686;2023-10-09T12:49:36;97542.00;;;29.30
56286;BMP180;42191;47.562;9.686;2023-10-09T12:52:07;97534.00;;;29.30
56286;BMP180;42191;47.562;9.686;2023-10-09T12:54:45;97540.00;;;29.20
56286;BMP180;42191;47.562;9.686;2023-10-09T12:57:12;97532.00;;;29.20
56286;BMP180;42191;47.562;9.686;2023-10-09T12:59:40;97528.00;;;29.20
56286;BMP180;42191;47.562;9.686;2023-10-09T13:02:13;97533.00;;;29.20
56286;BMP180;42191;47.562;9.686;2023-10-09T13:04:39;97520.00;;;29.10
56286;BMP180;42191;47.562;9.686;2023-10-09T13:07:08;97522.00;;;29.10
56286;BMP180;42191;47.562;9.686;2023-10-09T13:09:34;97528.00;;;29.10
56286;BMP180;42191;47.562;9.686;2023-10-09T13:12:10;97525.00;;;29.10
56286;BMP180;42191;47.562;9.686;2023-10-09T13:14:44;97520.00;;;29.00
56286;BMP180;42191;47.562;9.686;2023-10-09T13:17:11;97512.00;;;29.00
56286;BMP180;42191;47.562;9.686;2023-10-09T13:19:37;97523.00;;;29.00
56286;BMP180;42191;47.562;9.686;2023-10-09T13:22:04;97528.00;;;29.00
56286;BMP180;42191;47.562;9.686;2023-10-09T13:24:38;97518.00;;;29.00
56286;BMP180;42191;47.562;9.686;2023-10-09T13:27:05;97512.00;;;29.00
56286;BMP180;42191;47.562;9.686;2023-10-09T13:29:36;97516.00;;;28.90
56286;BMP180;42191;47.562;9.686;2023-10-09T13:32:06;97511.00;;;28.90
56286;BMP180;42191;47.562;9.686;2023-10-09T13:34:39;97509.00;;;28.80
56286;BMP180;42191;47.562;9.686;2023-10-09T13:37:11;97510.00;;;28.80
56286;BMP180;42191;47.562;9.686;2023-10-09T13:39:40;97511.00;;;28.80
56286;BMP180;42191;47.562;9.686;2023-10-09T13:42:17;97517.00;;;28.70
56286;BMP180;42191;47.562;9.686;2023-10-09T13:44:44;97524.00;;;28.60
56286;BMP180;42191;47.562;9.686;2023-10-09T13:47:10;97518.00;;;28.50
56286;BMP180;42191;47.562;9.686;2023-10-09T13:49:45;97502.00;;;28.40
56286;BMP180;42191;47.562;9.686;2023-10-09T13:52:11;97503.00;;;28.40
56286;BMP180;42191;47.562;9.686;2023-10-09T13:54:44;97513.00;;;28.30
56286;BMP180;42191;47.562;9.686;2023-10-09T13:57:14;97510.00;;;28.20
56286;BMP180;42191;47.562;9.686;2023-10-09T13:59:41;97502.00;;;28.10
56286;BMP180;42191;47.562;9.686;2023-10-09T14:02:18;97512.00;;;28.10
56286;BMP180;42191;47.562;9.686;2023-10-09T14:04:45;97494.00;;;28.00
56286;BMP180;42191;47.562;9.686;2023-10-09T14:07:13;97504.00;;;28.00
56286;BMP180;42191;47.562;9.686;2023-10-09T14:09:43;97502.00;;;27.90
56286;BMP180;42191;47.562;9.686;2023-10-09T14:12:09;97488.00;;;27.90
56286;BMP180;42191;47.562;9.686;2023-10-09T14:17:07;97462.00;;;27.80
56286;BMP180;42191;47.562;9.686;2023-10-09T14:19:58;97457.00;;;27.80
56286;BMP180;42191;47.562;9.686;2023-10-09T14:22:44;97457.00;;;27.80
56286;BMP180;42191;47.562;9.686;2023-10-09T14:25:12;97446.00;;;27.70
56286;BMP180;42191;47.562;9.686;2023-10-09T14:27:41;97428.00;;;27.70
56286;BMP180;42191;47.562;9.686;2023-10-09T14:30:07;97435.00;;;27.70
56286;BMP180;42191;47.562;9.686;2023-10-09T14:32:38;97429.00;;;27.70
56286;BMP180;42191;47.562;9.686;2023-10-09T14:35:10;97432.00;;;27.70
56286;BMP180;42191;47.562;9.686;2023-10-09T14:37:42;97426.00;;;27.60
56286;BMP180;42191;47.562;9.686;2023-10-09T14:40:08;97440.00;;;27.60
56286;BMP180;42191;47.562;9.686;2023-10-09T14:42:46;97431.00;;;27.60
56286;BMP180;42191;47.562;9.686;2023-10-09T14:45:13;97428.00;;;27.50
56286;BMP180;42191;47.562;9.686;2023-10-09T14:47:42;97416.00;;;27.50
56286;BMP180;42191;47.562;9.686;2023-10-09T14:50:08;97422.00;;;27.50
56286;BMP180;42191;47.562;9.686;2023-10-09T14:52:35;97424.00;;;27.50
56286;BMP180;42191;47.562;9.686;2023-10-09T14:55:05;97432.00;;;27.50
56286;BMP180;42191;47.562;9.686;2023-10-09T14:57:32;97423.00;;;27.50
56286;BMP180;42191;47.562;9.686;2023-10-09T15:00:04;97394.00;;;27.50
56286;BMP180;42191;47.562;9.686;2023-10-09T15:02:41;97397.00;;;27.60
56286;BMP180;42191;47.562;9.686;2023-10-09T15:05:07;97419.00;;;27.60
56286;BMP180;42191;47.562;9.686;2023-10-09T15:07:37;97432.00;;;27.60